createdAt,value
2022-08-26T00:00:24.050Z,3.90
2022-08-26T00:01:29.192Z,2.50
2022-08-26T00:02:25.448Z,4.40
2022-08-26T00:03:24.578Z,3.50
2022-08-26T00:04:24.771Z,3.10
2022-08-26T00:05:24.923Z,3.20
2022-08-26T00:06:25.061Z,4.00
2022-08-26T00:07:25.231Z,3.50
2022-08-26T00:08:25.400Z,3.80
2022-08-26T00:09:25.570Z,3.50
2022-08-26T00:10:25.849Z,3.40
2022-08-26T00:11:26.909Z,3.20
2022-08-26T00:12:31.544Z,3.40
2022-08-26T00:13:27.271Z,3.00
2022-08-26T00:14:30.969Z,3.20
2022-08-26T00:15:27.612Z,2.80
2022-08-26T00:16:26.890Z,3.20
2022-08-26T00:17:26.951Z,3.60
2022-08-26T00:18:27.128Z,3.20
2022-08-26T00:19:27.322Z,3.50
2022-08-26T00:20:27.453Z,3.90
2022-08-26T00:21:27.612Z,4.10
2022-08-26T00:22:27.795Z,3.30
2022-08-26T00:23:28.866Z,2.60
2022-08-26T00:24:28.162Z,2.70
2022-08-26T00:25:28.332Z,3.60
2022-08-26T00:26:28.595Z,2.80
2022-08-26T00:27:28.690Z,3.10
2022-08-26T00:28:28.860Z,3.60
2022-08-26T00:29:29.043Z,2.70
2022-08-26T00:30:29.204Z,3.10
2022-08-26T00:31:31.116Z,4.50
2022-08-26T00:32:29.554Z,3.30
2022-08-26T00:33:29.714Z,3.20
2022-08-26T00:34:29.894Z,2.70
2022-08-26T00:35:30.067Z,3.70
2022-08-26T00:36:30.235Z,3.60
2022-08-26T00:37:30.403Z,3.00
2022-08-26T00:38:30.574Z,3.30
2022-08-26T00:39:30.765Z,3.30
2022-08-26T00:40:31.017Z,3.00
2022-08-26T00:41:31.125Z,3.90
2022-08-26T00:42:31.295Z,3.60
2022-08-26T00:43:31.465Z,3.80
2022-08-26T00:44:32.646Z,3.30
2022-08-26T00:45:31.834Z,3.70
2022-08-26T00:46:31.963Z,3.00
2022-08-26T00:47:32.115Z,3.80
2022-08-26T00:48:32.288Z,4.00
2022-08-26T00:49:32.485Z,2.90
2022-08-26T00:50:32.666Z,3.70
2022-08-26T00:51:32.835Z,3.30
2022-08-26T00:52:33.007Z,3.20
2022-08-26T00:53:33.176Z,3.30
2022-08-26T00:54:33.366Z,3.60
2022-08-26T00:55:37.775Z,3.30
2022-08-26T00:56:33.698Z,3.20
2022-08-26T00:57:33.867Z,3.30
2022-08-26T00:58:34.068Z,3.10
2022-08-26T00:59:34.227Z,2.90
2022-08-26T01:00:34.397Z,2.90
2022-08-26T01:01:34.658Z,3.00
2022-08-26T01:02:34.814Z,3.10
2022-08-26T01:03:34.907Z,3.70
2022-08-26T01:04:35.096Z,2.90
2022-08-26T01:05:35.258Z,3.40
2022-08-26T01:06:35.417Z,3.40
2022-08-26T01:07:35.570Z,3.30
2022-08-26T01:08:35.738Z,3.10
2022-08-26T01:09:35.928Z,3.00
2022-08-26T01:10:36.068Z,4.20
2022-08-26T01:11:36.238Z,3.20
2022-08-26T01:12:36.408Z,4.20
2022-08-26T01:13:36.568Z,3.00
2022-08-26T01:14:36.877Z,3.80
2022-08-26T01:15:36.908Z,3.90
2022-08-26T01:16:37.158Z,3.40
2022-08-26T01:17:37.249Z,3.50
2022-08-26T01:18:37.418Z,3.50
2022-08-26T01:19:37.620Z,3.50
2022-08-26T01:20:37.771Z,3.30
2022-08-26T01:21:40.720Z,3.20
2022-08-26T01:22:38.221Z,3.30
2022-08-26T01:23:38.284Z,3.60
2022-08-26T01:24:38.939Z,3.10
2022-08-26T01:25:38.599Z,2.90
2022-08-26T01:26:38.770Z,3.50
2022-08-26T01:27:38.930Z,2.60
2022-08-26T01:28:39.091Z,3.00
2022-08-26T01:29:39.269Z,4.10
2022-08-26T01:30:39.440Z,3.30
2022-08-26T01:31:39.578Z,3.40
2022-08-26T01:32:39.770Z,2.80
2022-08-26T01:33:42.004Z,3.30
2022-08-26T01:34:40.167Z,3.10
2022-08-26T01:35:40.300Z,3.40
2022-08-26T01:36:40.470Z,3.00
2022-08-26T01:37:40.628Z,2.70
2022-08-26T01:38:40.795Z,2.50
2022-08-26T01:39:40.971Z,3.30
2022-08-26T01:40:41.111Z,3.20
2022-08-26T01:41:42.952Z,3.90
2022-08-26T01:42:41.450Z,3.10
2022-08-26T01:43:41.612Z,3.10
2022-08-26T01:44:41.802Z,3.30
2022-08-26T01:45:42.058Z,3.30
2022-08-26T01:46:42.143Z,3.50
2022-08-26T01:47:42.301Z,3.30
2022-08-26T01:48:42.471Z,3.70
2022-08-26T01:49:42.661Z,3.60
2022-08-26T01:50:42.831Z,2.90
2022-08-26T01:51:42.994Z,3.50
2022-08-26T01:52:43.162Z,3.50
2022-08-26T01:53:43.332Z,3.80
2022-08-26T01:54:46.332Z,2.80
2022-08-26T01:55:44.682Z,3.50
2022-08-26T01:56:43.852Z,3.40
2022-08-26T01:57:44.033Z,3.70
2022-08-26T01:58:44.202Z,3.40
2022-08-26T01:59:44.384Z,2.90
2022-08-26T02:00:44.604Z,4.00
2022-08-26T02:01:44.705Z,3.40
2022-08-26T02:02:44.874Z,3.60
2022-08-26T02:03:45.066Z,3.60
2022-08-26T02:04:45.267Z,3.70
2022-08-26T02:05:45.384Z,2.80
2022-08-26T02:06:45.574Z,3.60
2022-08-26T02:07:45.745Z,3.20
2022-08-26T02:08:45.914Z,3.40
2022-08-26T02:09:46.084Z,3.70
2022-08-26T02:10:46.234Z,3.20
2022-08-26T02:11:46.394Z,3.20
2022-08-26T02:12:46.563Z,3.60
2022-08-26T02:13:46.724Z,3.30
2022-08-26T02:14:46.914Z,4.00
2022-08-26T02:15:47.074Z,3.40
2022-08-26T02:16:47.295Z,2.50
2022-08-26T02:17:47.434Z,3.70
2022-08-26T02:18:47.617Z,2.90
2022-08-26T02:19:47.795Z,3.20
2022-08-26T02:20:47.965Z,2.90
2022-08-26T02:21:51.294Z,3.20
2022-08-26T02:22:48.333Z,3.80
2022-08-26T02:23:48.507Z,3.70
2022-08-26T02:24:48.697Z,4.40
2022-08-26T02:25:48.856Z,3.40
2022-08-26T02:26:49.034Z,3.00
2022-08-26T02:27:49.205Z,2.90
2022-08-26T02:28:49.357Z,3.60
2022-08-26T02:29:49.545Z,3.70
2022-08-26T02:30:49.698Z,4.00
2022-08-26T02:31:49.908Z,3.90
2022-08-26T02:32:50.036Z,3.10
2022-08-26T02:33:50.206Z,3.40
2022-08-26T02:34:50.398Z,3.50
2022-08-26T02:35:50.557Z,3.20
2022-08-26T02:36:50.857Z,3.20
2022-08-26T02:37:50.897Z,3.70
2022-08-26T02:38:51.056Z,3.90
2022-08-26T02:39:51.313Z,3.90
2022-08-26T02:40:51.416Z,3.60
2022-08-26T02:41:51.590Z,3.60
2022-08-26T02:42:52.972Z,3.00
2022-08-26T02:43:51.918Z,4.10
2022-08-26T02:44:52.098Z,3.80
2022-08-26T02:45:52.268Z,3.10
2022-08-26T02:46:52.444Z,3.70
2022-08-26T02:47:52.705Z,3.70
2022-08-26T02:48:52.759Z,4.10
2022-08-26T02:49:52.938Z,3.60
2022-08-26T02:50:53.069Z,3.00
2022-08-26T02:51:53.268Z,4.00
2022-08-26T02:52:53.438Z,3.40
2022-08-26T02:53:53.609Z,3.80
2022-08-26T02:54:53.797Z,4.40
2022-08-26T02:55:53.960Z,3.20
2022-08-26T02:56:54.131Z,3.50
2022-08-26T02:57:54.289Z,3.10
2022-08-26T02:58:54.468Z,4.20
2022-08-26T02:59:54.639Z,4.00
2022-08-26T03:00:54.866Z,4.20
2022-08-26T03:01:56.134Z,3.20
2022-08-26T03:02:55.110Z,3.60
2022-08-26T03:03:55.280Z,3.50
2022-08-26T03:04:57.820Z,3.60
2022-08-26T03:05:56.611Z,3.60
2022-08-26T03:06:55.771Z,3.70
2022-08-26T03:07:55.940Z,4.10
2022-08-26T03:08:56.101Z,3.50
2022-08-26T03:09:56.291Z,4.30
2022-08-26T03:10:56.451Z,3.40
2022-08-26T03:11:56.621Z,3.70
2022-08-26T03:12:56.790Z,4.10
2022-08-26T03:13:56.971Z,3.30
2022-08-26T03:14:57.151Z,4.20
2022-08-26T03:15:57.335Z,3.50
2022-08-26T03:16:57.491Z,3.40
2022-08-26T03:17:57.652Z,3.80
2022-08-26T03:18:57.831Z,3.90
2022-08-26T03:19:58.011Z,3.40
2022-08-26T03:20:58.173Z,3.70
2022-08-26T03:21:58.332Z,3.50
2022-08-26T03:22:58.501Z,3.50
2022-08-26T03:23:58.855Z,3.80
2022-08-26T03:24:58.864Z,3.80
2022-08-26T03:25:59.023Z,3.30
2022-08-26T03:26:59.203Z,3.50
2022-08-26T03:27:59.607Z,3.40
2022-08-26T03:28:59.587Z,4.20
2022-08-26T03:29:59.744Z,4.00
2022-08-26T03:30:59.922Z,3.50
2022-08-26T03:32:00.069Z,4.60
2022-08-26T03:33:00.232Z,3.40
2022-08-26T03:34:00.425Z,3.60
2022-08-26T03:35:00.603Z,3.20
2022-08-26T03:36:00.751Z,4.20
2022-08-26T03:37:00.913Z,4.10
2022-08-26T03:38:01.077Z,3.50
2022-08-26T03:39:01.253Z,4.20
2022-08-26T03:40:01.480Z,3.80
2022-08-26T03:41:01.584Z,3.50
2022-08-26T03:42:01.779Z,3.50
2022-08-26T03:43:01.970Z,3.50
2022-08-26T03:44:02.114Z,3.90
2022-08-26T03:45:02.301Z,3.20
2022-08-26T03:46:02.497Z,3.60
2022-08-26T03:47:02.644Z,3.80
2022-08-26T03:48:02.834Z,4.10
2022-08-26T03:49:02.989Z,3.50
2022-08-26T03:50:03.175Z,4.10
2022-08-26T03:51:03.346Z,3.50
2022-08-26T03:52:03.514Z,3.50
2022-08-26T03:53:03.749Z,3.60
2022-08-26T03:54:03.854Z,3.30
2022-08-26T03:55:04.055Z,4.10
2022-08-26T03:56:04.225Z,4.00
2022-08-26T03:57:04.395Z,3.50
2022-08-26T03:58:04.585Z,3.60
2022-08-26T03:59:04.755Z,4.20
2022-08-26T04:00:04.923Z,4.20
2022-08-26T04:01:05.075Z,3.50
2022-08-26T04:02:11.321Z,4.30
2022-08-26T04:03:06.656Z,3.80
2022-08-26T04:04:06.527Z,4.70
2022-08-26T04:05:05.786Z,4.80
2022-08-26T04:06:05.953Z,3.40
2022-08-26T04:07:06.136Z,3.00
2022-08-26T04:08:06.306Z,3.00
2022-08-26T04:09:06.507Z,3.40
2022-08-26T04:10:06.664Z,3.30
2022-08-26T04:11:06.850Z,3.40
2022-08-26T04:12:07.015Z,3.80
2022-08-26T04:13:07.508Z,4.50
2022-08-26T04:14:07.398Z,4.30
2022-08-26T04:15:07.556Z,4.30
2022-08-26T04:16:07.773Z,3.50
2022-08-26T04:17:07.897Z,4.10
2022-08-26T04:18:08.105Z,3.90
2022-08-26T04:19:08.262Z,3.70
2022-08-26T04:20:08.428Z,3.30
2022-08-26T04:21:08.578Z,3.80
2022-08-26T04:22:08.769Z,3.60
2022-08-26T04:23:09.047Z,3.50
2022-08-26T04:24:12.074Z,3.70
2022-08-26T04:25:09.315Z,3.70
2022-08-26T04:26:09.507Z,3.60
2022-08-26T04:27:09.660Z,3.80
2022-08-26T04:28:09.838Z,4.10
2022-08-26T04:29:10.042Z,3.60
2022-08-26T04:30:10.179Z,4.10
2022-08-26T04:31:10.418Z,3.60
2022-08-26T04:32:10.653Z,4.50
2022-08-26T04:33:13.171Z,3.40
2022-08-26T04:34:11.133Z,4.10
2022-08-26T04:35:11.036Z,3.60
2022-08-26T04:36:11.210Z,3.70
2022-08-26T04:37:11.350Z,3.80
2022-08-26T04:38:11.540Z,3.30
2022-08-26T04:39:11.711Z,4.20
2022-08-26T04:40:11.969Z,4.70
2022-08-26T04:41:15.208Z,5.00
2022-08-26T04:42:12.210Z,4.50
2022-08-26T04:43:12.390Z,4.20
2022-08-26T04:44:12.599Z,3.50
2022-08-26T04:45:12.743Z,4.70
2022-08-26T04:46:13.666Z,4.40
2022-08-26T04:47:13.101Z,4.30
2022-08-26T04:48:13.291Z,4.50
2022-08-26T04:49:13.481Z,3.80
2022-08-26T04:50:13.642Z,4.00
2022-08-26T04:51:13.822Z,4.30
2022-08-26T04:52:14.011Z,4.00
2022-08-26T04:53:14.206Z,3.50
2022-08-26T04:54:14.393Z,3.70
2022-08-26T04:55:14.541Z,4.00
2022-08-26T04:56:14.720Z,3.30
2022-08-26T04:57:14.872Z,4.10
2022-08-26T04:58:15.042Z,3.90
2022-08-26T04:59:16.756Z,3.90
2022-08-26T05:00:15.362Z,3.70
2022-08-26T05:01:15.583Z,4.50
2022-08-26T05:02:15.727Z,3.60
2022-08-26T05:03:15.882Z,3.20
2022-08-26T05:04:16.283Z,3.20
2022-08-26T05:05:16.232Z,3.90
2022-08-26T05:06:16.399Z,3.40
2022-08-26T05:07:17.597Z,4.30
2022-08-26T05:08:16.762Z,3.90
2022-08-26T05:09:16.922Z,3.20
2022-08-26T05:10:17.083Z,4.10
2022-08-26T05:11:17.243Z,2.80
2022-08-26T05:12:17.403Z,3.00
2022-08-26T05:13:17.590Z,4.60
2022-08-26T05:14:17.764Z,4.10
2022-08-26T05:15:17.914Z,3.40
2022-08-26T05:16:18.188Z,3.50
2022-08-26T05:17:18.279Z,3.50
2022-08-26T05:18:19.937Z,3.80
2022-08-26T05:19:19.104Z,3.00
2022-08-26T05:20:22.652Z,3.30
2022-08-26T05:21:20.015Z,3.50
2022-08-26T05:22:19.165Z,3.80
2022-08-26T05:23:19.355Z,3.90
2022-08-26T05:24:19.552Z,3.20
2022-08-26T05:25:19.696Z,3.20
2022-08-26T05:26:23.064Z,3.60
2022-08-26T05:27:20.066Z,3.30
2022-08-26T05:28:20.287Z,3.50
2022-08-26T05:29:20.446Z,4.00
2022-08-26T05:30:20.613Z,3.70
2022-08-26T05:31:20.802Z,2.90
2022-08-26T05:32:20.957Z,4.50
2022-08-26T05:33:21.136Z,3.30
2022-08-26T05:34:21.352Z,3.80
2022-08-26T05:35:21.486Z,4.40
2022-08-26T05:36:21.688Z,3.40
2022-08-26T05:37:21.867Z,3.10
2022-08-26T05:38:22.047Z,3.70
2022-08-26T05:39:22.227Z,4.00
2022-08-26T05:40:22.426Z,3.60
2022-08-26T05:41:22.547Z,3.80
2022-08-26T05:42:22.743Z,2.70
2022-08-26T05:43:22.910Z,4.10
2022-08-26T05:44:23.112Z,3.90
2022-08-26T05:45:23.248Z,3.30
2022-08-26T05:46:23.463Z,3.10
2022-08-26T05:47:23.598Z,3.30
2022-08-26T05:48:24.520Z,4.00
2022-08-26T05:49:26.264Z,4.00
2022-08-26T05:50:24.089Z,4.00
2022-08-26T05:51:26.091Z,3.40
2022-08-26T05:52:24.684Z,3.30
2022-08-26T05:53:26.062Z,3.30
2022-08-26T05:54:24.790Z,2.90
2022-08-26T05:55:24.940Z,3.00
2022-08-26T05:56:25.119Z,2.70
2022-08-26T05:57:25.280Z,4.40
2022-08-26T05:58:26.686Z,3.50
2022-08-26T05:59:25.640Z,4.20
2022-08-26T06:00:25.820Z,3.20
2022-08-26T06:01:26.135Z,3.50
2022-08-26T06:02:26.215Z,3.70
2022-08-26T06:03:26.350Z,2.90
2022-08-26T06:04:27.672Z,5.10
2022-08-26T06:05:26.700Z,3.70
2022-08-26T06:06:28.057Z,4.00
2022-08-26T06:07:27.052Z,3.40
2022-08-26T06:08:27.249Z,3.40
2022-08-26T06:09:27.473Z,3.10
2022-08-26T06:10:32.456Z,3.20
2022-08-26T06:11:28.782Z,3.80
2022-08-26T06:12:27.942Z,2.80
2022-08-26T06:13:30.263Z,4.20
2022-08-26T06:14:28.292Z,3.70
2022-08-26T06:15:28.463Z,3.30
2022-08-26T06:16:28.654Z,3.00
2022-08-26T06:17:28.834Z,3.50
2022-08-26T06:18:29.027Z,4.00
2022-08-26T06:19:32.972Z,3.50
2022-08-26T06:20:30.372Z,3.00
2022-08-26T06:21:29.520Z,3.50
2022-08-26T06:22:29.722Z,3.80
2022-08-26T06:23:29.854Z,3.60
2022-08-26T06:24:30.184Z,3.30
2022-08-26T06:25:30.233Z,3.20
2022-08-26T06:26:30.395Z,3.30
2022-08-26T06:27:32.944Z,2.90
2022-08-26T06:28:30.752Z,3.60
2022-08-26T06:29:30.912Z,3.70
2022-08-26T06:30:31.073Z,3.40
2022-08-26T06:31:31.274Z,3.50
2022-08-26T06:32:31.394Z,4.00
2022-08-26T06:33:31.588Z,3.20
2022-08-26T06:34:31.801Z,3.20
2022-08-26T06:35:31.945Z,3.70
2022-08-26T06:36:32.107Z,3.70
2022-08-26T06:37:32.268Z,3.70
2022-08-26T06:38:32.437Z,3.60
2022-08-26T06:39:33.599Z,3.30
2022-08-26T06:40:32.840Z,3.40
2022-08-26T06:41:32.946Z,3.20
2022-08-26T06:42:33.136Z,3.30
2022-08-26T06:43:33.288Z,3.70
2022-08-26T06:44:33.506Z,3.20
2022-08-26T06:45:33.647Z,3.40
2022-08-26T06:46:33.877Z,3.60
2022-08-26T06:47:33.977Z,4.10
2022-08-26T06:48:34.173Z,3.00
2022-08-26T06:49:34.377Z,3.50
2022-08-26T06:50:34.488Z,4.20
2022-08-26T06:51:34.738Z,3.10
2022-08-26T06:52:34.858Z,3.40
2022-08-26T06:53:35.039Z,3.80
2022-08-26T06:54:35.229Z,4.30
2022-08-26T06:55:35.398Z,3.00
2022-08-26T06:56:35.610Z,3.70
2022-08-26T06:57:35.759Z,3.50
2022-08-26T06:58:35.962Z,3.70
2022-08-26T06:59:36.140Z,3.00
2022-08-26T07:00:36.290Z,5.00
2022-08-26T07:01:36.491Z,3.00
2022-08-26T07:02:36.703Z,4.00
2022-08-26T07:03:39.813Z,4.00
2022-08-26T07:04:37.030Z,3.30
2022-08-26T07:05:37.180Z,3.80
2022-08-26T07:06:37.359Z,3.60
2022-08-26T07:07:37.521Z,3.10
2022-08-26T07:08:37.680Z,4.20
2022-08-26T07:09:37.912Z,3.40
2022-08-26T07:10:38.061Z,3.50
2022-08-26T07:11:38.241Z,4.00
2022-08-26T07:12:38.392Z,4.10
2022-08-26T07:13:38.562Z,4.60
2022-08-26T07:14:38.752Z,3.20
2022-08-26T07:15:38.977Z,3.80
2022-08-26T07:16:39.113Z,5.10
2022-08-26T07:17:39.293Z,3.30
2022-08-26T07:18:39.463Z,3.80
2022-08-26T07:19:39.662Z,2.50
2022-08-26T07:20:39.804Z,3.50
2022-08-26T07:21:39.973Z,2.20
2022-08-26T07:22:40.154Z,4.30
2022-08-26T07:23:40.481Z,3.70
2022-08-26T07:24:40.514Z,3.20
2022-08-26T07:25:40.693Z,2.90
2022-08-26T07:26:42.952Z,3.60
2022-08-26T07:27:41.054Z,3.20
2022-08-26T07:28:41.230Z,3.10
2022-08-26T07:29:41.425Z,2.90
2022-08-26T07:30:41.628Z,3.00
2022-08-26T07:31:42.778Z,3.10
2022-08-26T07:32:41.952Z,3.30
2022-08-26T07:33:42.125Z,3.20
2022-08-26T07:34:42.796Z,3.00
2022-08-26T07:35:42.467Z,2.50
2022-08-26T07:36:42.647Z,3.20
2022-08-26T07:37:42.846Z,2.60
2022-08-26T07:38:42.998Z,3.50
2022-08-26T07:39:43.631Z,2.90
2022-08-26T07:40:43.317Z,2.50
2022-08-26T07:41:43.510Z,3.40
2022-08-26T07:42:43.688Z,2.80
2022-08-26T07:43:43.891Z,3.50
2022-08-26T07:44:44.048Z,2.70
2022-08-26T07:45:44.228Z,3.10
2022-08-26T07:46:44.379Z,3.10
2022-08-26T07:47:45.570Z,2.50
2022-08-26T07:48:46.146Z,2.50
2022-08-26T07:49:44.967Z,3.30
2022-08-26T07:50:49.178Z,2.40
2022-08-26T07:51:46.280Z,2.50
2022-08-26T07:52:46.507Z,3.30
2022-08-26T07:53:48.019Z,2.30
2022-08-26T07:54:46.831Z,2.70
2022-08-26T07:55:45.962Z,2.70
2022-08-26T07:56:46.152Z,2.90
2022-08-26T07:57:46.352Z,2.20
2022-08-26T07:58:50.481Z,3.70
2022-08-26T07:59:47.692Z,3.20
2022-08-26T08:00:46.875Z,2.50
2022-08-26T08:01:47.112Z,2.70
2022-08-26T08:02:47.224Z,3.40
2022-08-26T08:03:47.385Z,1.90
2022-08-26T08:04:47.657Z,2.10
2022-08-26T08:05:47.765Z,2.20
2022-08-26T08:06:47.924Z,3.10
2022-08-26T08:07:48.087Z,2.30
2022-08-26T08:08:50.748Z,2.70
2022-08-26T08:09:48.455Z,2.00
2022-08-26T08:10:48.877Z,2.00
2022-08-26T08:11:48.795Z,2.20
2022-08-26T08:12:48.946Z,2.20
2022-08-26T08:13:49.126Z,2.50
2022-08-26T08:14:49.317Z,1.80
2022-08-26T08:15:50.377Z,2.70
2022-08-26T08:16:51.124Z,3.20
2022-08-26T08:17:51.517Z,5.20
2022-08-26T08:18:50.048Z,2.90
2022-08-26T08:19:50.238Z,2.20
2022-08-26T08:20:59.390Z,2.30
2022-08-26T08:21:51.568Z,3.10
2022-08-26T08:22:50.728Z,2.30
2022-08-26T08:23:50.920Z,2.60
2022-08-26T08:24:52.992Z,2.60
2022-08-26T08:25:51.290Z,2.50
2022-08-26T08:26:51.479Z,2.50
2022-08-26T08:27:51.647Z,2.30
2022-08-26T08:28:51.808Z,2.90
2022-08-26T08:29:51.988Z,1.60
2022-08-26T08:30:52.260Z,2.30
2022-08-26T08:31:56.897Z,2.40
2022-08-26T08:32:53.491Z,1.70
2022-08-26T08:33:52.683Z,2.40
2022-08-26T08:34:53.152Z,2.50
2022-08-26T08:35:53.067Z,1.80
2022-08-26T08:36:53.362Z,2.70
2022-08-26T08:37:53.370Z,1.70
2022-08-26T08:38:53.579Z,3.00
2022-08-26T08:39:53.823Z,3.20
2022-08-26T08:40:53.913Z,2.10
2022-08-26T08:41:54.081Z,2.30
2022-08-26T08:42:54.277Z,3.10
2022-08-26T08:43:54.435Z,2.60
2022-08-26T08:44:54.614Z,3.00
2022-08-26T08:45:54.819Z,2.80
2022-08-26T08:46:54.959Z,1.90
2022-08-26T08:47:55.128Z,3.30
2022-08-26T08:48:55.334Z,2.50
2022-08-26T08:49:55.495Z,2.10
2022-08-26T08:50:55.676Z,2.10
2022-08-26T08:51:55.846Z,2.20
2022-08-26T08:52:56.028Z,2.70
2022-08-26T08:53:56.222Z,2.20
2022-08-26T08:54:56.366Z,2.00
2022-08-26T08:55:56.548Z,2.20
2022-08-26T08:56:56.728Z,2.50
2022-08-26T08:57:56.899Z,2.70
2022-08-26T08:58:58.098Z,3.20
2022-08-26T08:59:57.268Z,2.30
2022-08-26T09:00:57.441Z,1.80
2022-08-26T09:01:57.680Z,1.70
2022-08-26T09:02:57.789Z,2.00
2022-08-26T09:03:57.980Z,1.50
2022-08-26T09:04:58.143Z,3.20
2022-08-26T09:05:58.310Z,1.70
2022-08-26T09:07:58.653Z,2.30
2022-08-26T09:08:58.871Z,2.40
2022-08-26T09:09:59.010Z,2.80
2022-08-26T09:10:59.199Z,2.90
2022-08-26T09:11:59.361Z,2.40
2022-08-26T09:12:59.533Z,3.60
2022-08-26T09:14:00.453Z,2.60
2022-08-26T09:14:59.864Z,2.40
2022-08-26T09:16:00.041Z,1.80
2022-08-26T09:17:00.262Z,2.50
2022-08-26T09:18:00.429Z,2.70
2022-08-26T09:19:00.564Z,1.80
2022-08-26T09:20:00.763Z,1.60
2022-08-26T09:21:00.943Z,1.70
2022-08-26T09:22:04.631Z,2.00
2022-08-26T09:23:02.390Z,1.60
2022-08-26T09:24:01.465Z,2.30
2022-08-26T09:25:01.646Z,2.60
2022-08-26T09:26:01.835Z,2.10
2022-08-26T09:27:02.015Z,1.30
2022-08-26T09:28:02.319Z,0.90
2022-08-26T09:29:02.346Z,2.50
2022-08-26T09:30:02.514Z,2.00
2022-08-26T09:31:03.553Z,2.10
2022-08-26T09:32:02.895Z,1.50
2022-08-26T09:33:03.058Z,1.40
2022-08-26T09:34:04.256Z,2.60
2022-08-26T09:35:03.415Z,2.40
2022-08-26T09:36:03.598Z,1.90
2022-08-26T09:37:04.574Z,1.90
2022-08-26T09:38:04.378Z,2.30
2022-08-26T09:39:04.400Z,2.30
2022-08-26T09:40:04.324Z,2.60
2022-08-26T09:41:05.034Z,1.80
2022-08-26T09:42:04.662Z,1.40
2022-08-26T09:43:04.863Z,2.80
2022-08-26T09:44:05.050Z,2.50
2022-08-26T09:45:05.200Z,1.70
2022-08-26T09:46:05.393Z,1.90
2022-08-26T09:47:05.573Z,2.10
2022-08-26T09:48:05.741Z,3.10
2022-08-26T09:49:05.877Z,2.10
2022-08-26T09:50:09.714Z,1.90
2022-08-26T09:51:07.247Z,2.20
2022-08-26T09:52:06.432Z,2.40
2022-08-26T09:53:09.808Z,2.20
2022-08-26T09:54:08.196Z,1.50
2022-08-26T09:55:06.923Z,1.60
2022-08-26T09:56:07.113Z,3.00
2022-08-26T09:57:07.314Z,2.20
2022-08-26T09:58:07.890Z,2.30
2022-08-26T09:59:07.645Z,2.00
2022-08-26T10:00:07.814Z,1.40
2022-08-26T10:01:08.031Z,1.60
2022-08-26T10:02:12.243Z,1.90
2022-08-26T10:03:08.445Z,2.50
2022-08-26T10:04:08.583Z,2.90
2022-08-26T10:05:09.680Z,2.30
2022-08-26T10:06:08.867Z,2.40
2022-08-26T10:07:09.055Z,2.60
2022-08-26T10:08:09.279Z,1.70
2022-08-26T10:09:09.875Z,2.10
2022-08-26T10:10:09.577Z,1.90
2022-08-26T10:11:09.747Z,3.00
2022-08-26T10:12:09.918Z,2.20
2022-08-26T10:13:10.326Z,3.30
2022-08-26T10:14:10.248Z,2.10
2022-08-26T10:15:10.438Z,2.00
2022-08-26T10:16:10.974Z,3.90
2022-08-26T10:17:10.738Z,2.50
2022-08-26T10:18:10.958Z,3.10
2022-08-26T10:19:11.099Z,3.40
2022-08-26T10:20:23.111Z,2.80
2022-08-26T10:21:12.430Z,2.90
2022-08-26T10:22:11.601Z,2.70
2022-08-26T10:23:11.787Z,2.30
2022-08-26T10:24:11.920Z,2.90
2022-08-26T10:25:12.075Z,3.00
2022-08-26T10:26:12.287Z,2.20
2022-08-26T10:27:12.442Z,3.10
2022-08-26T10:28:12.610Z,2.80
2022-08-26T10:29:12.815Z,2.10
2022-08-26T10:30:12.922Z,2.50
2022-08-26T10:31:13.082Z,3.10
2022-08-26T10:32:13.801Z,3.30
2022-08-26T10:33:13.473Z,3.30
2022-08-26T10:34:14.083Z,2.80
2022-08-26T10:35:13.792Z,2.30
2022-08-26T10:36:15.203Z,2.20
2022-08-26T10:37:16.071Z,3.20
2022-08-26T10:38:14.333Z,2.50
2022-08-26T10:39:14.483Z,3.60
2022-08-26T10:40:14.767Z,2.90
2022-08-26T10:41:16.935Z,2.70
2022-08-26T10:42:15.034Z,3.50
2022-08-26T10:43:15.177Z,2.70
2022-08-26T10:44:15.375Z,5.40
2022-08-26T10:45:15.615Z,2.90
2022-08-26T10:46:15.798Z,2.20
2022-08-26T10:47:15.905Z,2.30
2022-08-26T10:48:16.055Z,4.80
2022-08-26T10:49:16.216Z,3.30
2022-08-26T10:50:17.941Z,2.30
2022-08-26T10:51:16.597Z,3.40
2022-08-26T10:52:16.832Z,2.60
2022-08-26T10:53:16.917Z,1.90
2022-08-26T10:54:17.098Z,2.30
2022-08-26T10:55:17.269Z,2.80
2022-08-26T10:56:19.201Z,2.70
2022-08-26T10:57:17.636Z,1.60
2022-08-26T10:58:26.428Z,1.50
2022-08-26T10:59:18.986Z,2.20
2022-08-26T11:00:18.151Z,1.60
2022-08-26T11:01:22.926Z,1.70
2022-08-26T11:02:22.813Z,1.00
2022-08-26T11:03:22.115Z,1.50
2022-08-26T11:04:18.896Z,2.00
2022-08-26T11:05:19.019Z,2.10
2022-08-26T11:06:19.182Z,2.20
2022-08-26T11:07:19.350Z,1.30
2022-08-26T11:08:19.493Z,3.90
2022-08-26T11:09:19.682Z,1.90
2022-08-26T11:10:20.831Z,1.50
2022-08-26T11:11:20.001Z,1.80
2022-08-26T11:12:20.201Z,1.90
2022-08-26T11:13:20.351Z,1.40
2022-08-26T11:14:29.225Z,1.60
2022-08-26T11:15:24.587Z,1.90
2022-08-26T11:16:20.910Z,1.60
2022-08-26T11:17:21.061Z,0.90
2022-08-26T11:18:21.212Z,0.70
2022-08-26T11:19:21.380Z,1.80
2022-08-26T11:20:21.554Z,2.00
2022-08-26T11:21:21.750Z,1.00
2022-08-26T11:22:21.954Z,0.90
2022-08-26T11:23:22.093Z,1.80
2022-08-26T11:24:22.273Z,0.80
2022-08-26T11:25:25.400Z,1.10
2022-08-26T11:26:35.985Z,1.40
2022-08-26T11:27:23.834Z,1.00
2022-08-26T11:28:22.964Z,0.70
2022-08-26T11:29:23.134Z,0.90
2022-08-26T11:30:24.211Z,1.30
2022-08-26T11:31:23.525Z,1.30
2022-08-26T11:32:23.674Z,1.40
2022-08-26T11:33:23.857Z,1.60
2022-08-26T11:34:23.994Z,1.30
2022-08-26T11:35:24.163Z,1.30
2022-08-26T11:36:24.312Z,2.10
2022-08-26T11:37:24.529Z,1.20
2022-08-26T11:38:24.676Z,1.40
2022-08-26T11:39:24.870Z,1.30
2022-08-26T11:40:25.291Z,2.60
2022-08-26T11:41:25.236Z,2.10
2022-08-26T11:42:25.427Z,2.00
2022-08-26T11:43:25.616Z,1.90
2022-08-26T11:44:25.795Z,1.80
2022-08-26T11:45:26.051Z,1.30
2022-08-26T11:46:26.136Z,1.70
2022-08-26T11:47:26.334Z,2.10
2022-08-26T11:48:26.507Z,2.00
2022-08-26T11:49:30.547Z,2.20
2022-08-26T11:50:26.829Z,2.10
2022-08-26T11:51:26.985Z,1.60
2022-08-26T11:52:27.158Z,1.80
2022-08-26T11:53:27.327Z,1.70
2022-08-26T11:54:35.651Z,1.60
2022-08-26T11:55:28.668Z,1.90
2022-08-26T11:56:31.492Z,1.90
2022-08-26T11:57:28.026Z,1.60
2022-08-26T11:58:28.168Z,1.70
2022-08-26T11:59:28.391Z,2.20
2022-08-26T12:00:33.300Z,2.60
2022-08-26T12:01:31.358Z,2.50
2022-08-26T12:02:28.887Z,1.80
2022-08-26T12:03:29.145Z,1.90
2022-08-26T12:04:29.298Z,1.80
2022-08-26T12:05:30.884Z,1.10
2022-08-26T12:06:29.564Z,1.20
2022-08-26T12:07:29.740Z,1.40
2022-08-26T12:08:29.899Z,1.30
2022-08-26T12:09:30.059Z,1.00
2022-08-26T12:10:30.230Z,1.20
2022-08-26T12:11:30.389Z,2.00
2022-08-26T12:12:34.789Z,1.20
2022-08-26T12:13:30.729Z,1.90
2022-08-26T12:14:30.901Z,0.90
2022-08-26T12:15:31.071Z,1.40
2022-08-26T12:16:31.257Z,1.40
2022-08-26T12:17:31.451Z,1.40
2022-08-26T12:18:31.598Z,1.50
2022-08-26T12:19:32.637Z,2.40
2022-08-26T12:20:31.912Z,2.20
2022-08-26T12:21:34.830Z,2.30
2022-08-26T12:22:32.293Z,2.70
2022-08-26T12:23:32.455Z,4.30
2022-08-26T12:24:32.621Z,2.60
2022-08-26T12:25:36.127Z,2.40
2022-08-26T12:26:32.963Z,2.90
2022-08-26T12:27:33.150Z,2.50
2022-08-26T12:28:33.293Z,2.70
2022-08-26T12:29:33.463Z,2.70
2022-08-26T12:30:33.623Z,2.60
2022-08-26T12:31:33.845Z,1.80
2022-08-26T12:32:33.983Z,2.70
2022-08-26T12:33:34.150Z,2.40
2022-08-26T12:34:34.711Z,3.60
2022-08-26T12:35:34.474Z,3.40
2022-08-26T12:36:34.654Z,2.60
2022-08-26T12:37:34.878Z,4.00
2022-08-26T12:38:35.003Z,3.60
2022-08-26T12:39:35.243Z,3.00
2022-08-26T12:40:35.407Z,2.70
2022-08-26T12:41:35.515Z,3.40
2022-08-26T12:42:35.696Z,2.30
2022-08-26T12:43:35.889Z,3.00
2022-08-26T12:44:36.065Z,3.70
2022-08-26T12:45:36.241Z,3.20
2022-08-26T12:46:36.395Z,3.20
2022-08-26T12:47:42.724Z,4.20
2022-08-26T12:48:37.755Z,3.70
2022-08-26T12:49:36.943Z,3.60
2022-08-26T12:50:37.126Z,4.70
2022-08-26T12:51:37.325Z,4.50
2022-08-26T12:52:37.505Z,3.40
2022-08-26T12:53:37.665Z,3.60
2022-08-26T12:54:37.856Z,3.90
2022-08-26T12:55:38.046Z,4.20
2022-08-26T12:56:38.196Z,3.40
2022-08-26T12:57:38.406Z,5.00
2022-08-26T12:58:38.556Z,3.50
2022-08-26T12:59:38.748Z,3.50
2022-08-26T13:00:38.957Z,4.50
2022-08-26T13:01:39.260Z,3.90
2022-08-26T13:02:39.276Z,3.70
2022-08-26T13:03:39.416Z,3.50
2022-08-26T13:04:39.597Z,3.80
2022-08-26T13:05:39.787Z,3.00
2022-08-26T13:06:39.977Z,2.90
2022-08-26T13:07:40.160Z,3.20
2022-08-26T13:08:40.297Z,3.60
2022-08-26T13:09:40.499Z,2.40
2022-08-26T13:10:40.648Z,1.70
2022-08-26T13:11:40.831Z,2.20
2022-08-26T13:12:41.025Z,2.50
2022-08-26T13:13:41.209Z,1.70
2022-08-26T13:14:41.388Z,1.90
2022-08-26T13:15:41.575Z,2.00
2022-08-26T13:16:41.799Z,2.00
2022-08-26T13:17:41.939Z,1.90
2022-08-26T13:18:42.136Z,1.80
2022-08-26T13:19:42.296Z,2.40
2022-08-26T13:20:42.459Z,2.50
2022-08-26T13:21:42.660Z,2.20